Time;durP1;ratioP1;P1;durP2;ratioP2;P2;SDS_P1;SDS_P2;PMS_P1;PMS_P2;Temp;Humidity;BMP_temperature;BMP_pressure;BME280_temperature;BME280_humidity;BME280_pressure;Samples;Min_cycle;Max_cycle;Signal;HPM_P1;HPM_P2
2023/04/18 00:00:18;;;;;;;15.52;8.68;;;;;;;6.66;100.00;99245.91;4990083;28;20231;-78
2023/04/18 00:02:44;;;;;;;18.85;9.85;;;;;;;6.72;100.00;99257.84;4994553;28;20141;-79
2023/04/18 00:05:11;;;;;;;15.43;8.63;;;;;;;6.63;100.00;99259.69;4992920;28;20481;-79
2023/04/18 00:07:37;;;;;;;14.55;9.20;;;;;;;6.54;100.00;99255.28;4995440;28;20034;-78
2023/04/18 00:10:06;;;;;;;16.13;8.45;;;;;;;6.36;100.00;99237.44;4994671;28;20018;-78
2023/04/18 00:12:33;;;;;;;18.95;8.85;;;;;;;6.36;100.00;99252.75;4994494;28;20392;-78
2023/04/18 00:14:59;;;;;;;15.70;9.13;;;;;;;6.17;100.00;99239.63;4994930;28;20488;-78
2023/04/18 00:17:26;;;;;;;17.02;8.55;;;;;;;6.14;100.00;99263.13;4985491;28;20071;-77
2023/04/18 00:19:53;;;;;;;16.17;9.07;;;;;;;6.12;100.00;99259.75;4994582;28;20026;-77
2023/04/18 00:22:22;;;;;;;16.52;10.25;;;;;;;5.97;100.00;99239.03;4997584;28;20026;-79
2023/04/18 00:24:48;;;;;;;17.98;10.00;;;;;;;6.09;100.00;99254.69;4995862;28;20550;-79
2023/04/18 00:27:15;;;;;;;20.83;9.60;;;;;;;6.06;100.00;99249.66;4995706;28;20041;-79
2023/04/18 00:29:41;;;;;;;17.65;9.73;;;;;;;6.02;100.00;99224.13;4995073;28;20710;-79
2023/04/18 00:32:07;;;;;;;16.95;9.65;;;;;;;6.11;100.00;99225.00;4998198;28;20621;-80
2023/04/18 00:34:32;;;;;;;19.33;10.18;;;;;;;6.01;100.00;99194.75;5011601;28;20033;-80
2023/04/18 00:36:57;;;;;;;17.13;9.48;;;;;;;6.30;100.00;99227.38;5011219;28;20026;-80
2023/04/18 00:39:22;;;;;;;19.30;10.00;;;;;;;6.20;100.00;99221.31;5011237;28;20031;-80
2023/04/18 00:41:48;;;;;;;18.77;10.30;;;;;;;6.07;100.00;99208.34;4993379;28;20564;-78
2023/04/18 00:44:13;;;;;;;19.77;9.50;;;;;;;6.34;100.00;99244.88;4984535;28;20061;-78
2023/04/18 00:46:38;;;;;;;13.77;8.50;;;;;;;6.12;100.00;99223.97;4987406;28;20026;-78
2023/04/18 00:49:04;;;;;;;15.88;8.70;;;;;;;6.07;100.00;99215.56;4993242;28;20028;-78
2023/04/18 00:51:30;;;;;;;16.60;8.75;;;;;;;6.09;100.00;99238.59;4989555;28;20485;-77
2023/04/18 00:53:56;;;;;;;15.93;8.38;;;;;;;5.89;100.00;99234.47;4991005;28;20030;-79
2023/04/18 00:56:22;;;;;;;18.65;8.57;;;;;;;5.88;100.00;99243.53;4993480;28;20113;-79
2023/04/18 00:58:48;;;;;;;16.30;8.30;;;;;;;5.74;100.00;99228.03;4980635;28;20085;-78
2023/04/18 01:01:13;;;;;;;18.05;8.25;;;;;;;5.79;100.00;99237.28;4987844;28;20021;-79
2023/04/18 01:03:39;;;;;;;14.48;8.10;;;;;;;5.69;100.00;99232.03;4991174;28;20647;-78
2023/04/18 01:06:05;;;;;;;16.45;8.75;;;;;;;5.69;100.00;99244.63;4993519;28;20506;-79
2023/04/18 01:08:30;;;;;;;18.13;9.35;;;;;;;5.46;100.00;99212.97;4993469;28;20030;-78
2023/04/18 01:10:55;;;;;;;12.80;8.43;;;;;;;5.45;100.00;99219.38;4993258;28;20117;-80
2023/04/18 01:13:21;;;;;;;16.25;9.45;;;;;;;5.47;100.00;99217.34;4991439;28;20041;-80
2023/04/18 01:15:48;;;;;;;16.15;8.75;;;;;;;5.67;100.00;99242.09;4991501;28;20444;-78
2023/04/18 01:18:15;;;;;;;15.18;8.18;;;;;;;5.55;100.00;99202.28;4992816;28;20061;-78
2023/04/18 01:20:47;;;;;;;18.60;8.65;;;;;;;5.48;100.00;99200.25;4991666;28;20112;-78
2023/04/18 01:23:14;;;;;;;17.90;9.57;;;;;;;5.53;100.00;99202.47;4990653;28;20148;-76
2023/04/18 01:25:39;;;;;;;15.57;8.82;;;;;;;5.65;100.00;99224.47;4992736;28;20500;-75
2023/04/18 01:28:05;;;;;;;18.23;9.85;;;;;;;5.55;100.00;99218.38;4991464;28;20042;-76
2023/04/18 01:30:34;;;;;;;16.50;8.32;;;;;;;5.47;100.00;99206.59;4989776;28;20452;-75
2023/04/18 01:33:00;;;;;;;16.83;8.40;;;;;;;5.35;100.00;99205.22;4992795;28;20022;-75
2023/04/18 01:35:26;;;;;;;16.75;9.00;;;;;;;5.24;100.00;99205.50;4993736;28;20109;-75
2023/04/18 01:37:51;;;;;;;14.40;7.78;;;;;;;5.06;100.00;99197.53;4992433;28;20018;-76
2023/04/18 01:40:17;;;;;;;17.08;8.52;;;;;;;5.02;100.00;99191.63;4991591;28;20392;-76
2023/04/18 01:42:42;;;;;;;17.45;8.88;;;;;;;4.91;100.00;99191.88;4992514;28;20534;-75
2023/04/18 01:45:07;;;;;;;15.55;8.02;;;;;;;4.78;100.00;99188.78;4989645;28;20109;-76
2023/04/18 01:47:33;;;;;;;16.23;8.27;;;;;;;4.70;100.00;99197.59;4991347;28;20535;-76
2023/04/18 01:49:58;;;;;;;14.88;7.95;;;;;;;4.63;100.00;99196.53;4992688;28;20023;-75
2023/04/18 01:52:23;;;;;;;17.23;9.57;;;;;;;4.53;100.00;99191.28;4996926;28;20392;-75
2023/04/18 01:54:49;;;;;;;18.33;9.25;;;;;;;4.36;100.00;99179.56;4991523;28;20034;-76
2023/04/18 01:57:14;;;;;;;16.45;9.05;;;;;;;4.48;100.00;99206.13;4985914;28;20034;-76
2023/04/18 01:59:40;;;;;;;17.10;8.65;;;;;;;4.31;100.00;99181.03;4991259;28;20030;-75
2023/04/18 02:02:05;;;;;;;16.52;9.15;;;;;;;4.43;100.00;99198.56;4985191;28;20030;-76
2023/04/18 02:04:30;;;;;;;18.83;9.02;;;;;;;4.37;100.00;99191.97;4985022;28;20076;-75
2023/04/18 02:06:55;;;;;;;22.35;10.18;;;;;;;4.32;100.00;99196.09;4992251;28;20397;-76
2023/04/18 02:09:21;;;;;;;19.60;9.65;;;;;;;4.36;100.00;99190.28;4993211;28;20019;-75
2023/04/18 02:11:46;;;;;;;22.10;10.35;;;;;;;4.53;100.00;99210.03;4993273;28;20161;-75
2023/04/18 02:14:11;;;;;;;19.40;10.20;;;;;;;4.44;100.00;99194.06;4990468;28;20034;-76
2023/04/18 02:16:37;;;;;;;20.45;10.13;;;;;;;4.58;100.00;99209.56;4991210;28;20037;-75
2023/04/18 02:19:03;;;;;;;21.30;9.73;;;;;;;4.45;100.00;99183.16;4992310;28;20037;-75
2023/04/18 02:21:29;;;;;;;19.67;10.07;;;;;;;4.47;100.00;99191.88;4992904;28;20113;-75
2023/04/18 02:23:55;;;;;;;22.13;10.70;;;;;;;4.58;100.00;99210.44;4997884;28;20061;-76
2023/04/18 02:26:20;;;;;;;20.45;9.50;;;;;;;4.59;100.00;99212.09;4990895;28;20038;-76
2023/04/18 02:28:46;;;;;;;20.23;10.05;;;;;;;4.52;100.00;99200.31;4991491;28;20022;-76
2023/04/18 02:31:13;;;;;;;16.55;9.55;;;;;;;4.46;100.00;99195.56;4988441;28;20022;-75
2023/04/18 02:33:42;;;;;;;16.60;10.27;;;;;;;4.53;100.00;99201.13;4990170;28;20030;-75
2023/04/18 02:36:08;;;;;;;20.67;10.10;;;;;;;4.61;100.00;99214.59;4990875;28;20026;-77
2023/04/18 02:38:33;;;;;;;18.15;9.25;;;;;;;4.51;100.00;99187.09;4990623;28;20654;-75
2023/04/18 02:40:59;;;;;;;25.15;10.57;;;;;;;4.59;100.00;99209.41;4989172;28;20070;-77
2023/04/18 02:43:24;;;;;;;20.08;10.40;;;;;;;4.48;100.00;99198.09;4989708;28;20378;-77
2023/04/18 02:45:49;;;;;;;21.27;10.40;;;;;;;4.49;100.00;99195.25;4985508;28;20026;-77
2023/04/18 02:48:15;;;;;;;22.90;11.20;;;;;;;4.52;100.00;99213.69;4989485;28;20895;-77
2023/04/18 02:50:40;;;;;;;19.13;10.20;;;;;;;4.35;100.00;99185.09;4992193;28;20058;-77
2023/04/18 02:53:06;;;;;;;18.40;10.73;;;;;;;4.44;100.00;99197.56;4989035;28;20046;-77
2023/04/18 02:55:31;;;;;;;20.60;10.77;;;;;;;4.32;100.00;99185.41;4991751;28;20442;-78
2023/04/18 02:57:57;;;;;;;21.65;11.05;;;;;;;4.31;100.00;99206.00;4994985;28;20445;-80
2023/04/18 03:00:22;;;;;;;19.42;10.73;;;;;;;4.29;100.00;99193.75;4998458;28;20026;-77
2023/04/18 03:02:48;;;;;;;24.60;11.25;;;;;;;4.23;100.00;99186.34;5001898;28;20396;-77
2023/04/18 03:05:13;;;;;;;21.38;11.07;;;;;;;4.12;100.00;99171.34;5002232;28;20022;-77
2023/04/18 03:07:38;;;;;;;20.85;11.77;;;;;;;4.27;100.00;99195.72;4995611;28;20027;-77
2023/04/18 03:10:04;;;;;;;22.52;11.48;;;;;;;4.30;100.00;99190.91;4996056;28;20054;-77
2023/04/18 03:12:30;;;;;;;27.35;11.55;;;;;;;4.37;100.00;99197.31;4994164;28;20030;-77
2023/04/18 03:14:55;;;;;;;26.30;12.73;;;;;;;4.39;100.00;99203.38;4998234;28;20029;-87
2023/04/18 03:17:20;;;;;;;20.13;11.25;;;;;;;4.21;100.00;99188.31;4992898;28;20061;-87
2023/04/18 03:19:46;;;;;;;20.90;11.05;;;;;;;4.06;100.00;99172.78;4997101;28;20105;-88
2023/04/18 03:22:12;;;;;;;22.85;12.07;;;;;;;4.02;100.00;99182.13;4997499;28;20030;-85
2023/04/18 03:24:37;;;;;;;20.55;11.35;;;;;;;3.74;100.00;99154.53;4998362;28;20080;-84
2023/04/18 03:27:03;;;;;;;24.45;11.55;;;;;;;3.92;100.00;99202.75;4996524;28;20030;-87
2023/04/18 03:29:28;;;;;;;22.20;12.23;;;;;;;3.53;100.00;99149.47;4996020;28;20045;-88
2023/04/18 03:31:53;;;;;;;25.63;11.32;;;;;;;3.32;100.00;99122.97;4997570;28;20088;-83
2023/04/18 03:34:19;;;;;;;22.90;11.40;;;;;;;3.38;100.00;99142.94;4990786;28;20066;-84
2023/04/18 03:36:44;;;;;;;21.65;12.23;;;;;;;3.25;100.00;99141.47;4995280;28;20022;-87
2023/04/18 03:39:10;;;;;;;26.48;12.48;;;;;;;3.44;100.00;99169.94;4996983;28;20555;-84
2023/04/18 03:41:35;;;;;;;22.45;12.18;;;;;;;3.39;100.00;99168.72;4989408;28;20053;-86
2023/04/18 03:44:00;;;;;;;22.95;11.88;;;;;;;3.48;100.00;99173.16;4995118;28;20385;-86
2023/04/18 03:46:26;;;;;;;24.00;12.43;;;;;;;3.27;100.00;99142.16;4994026;28;20026;-84
2023/04/18 03:48:51;;;;;;;26.60;13.23;;;;;;;3.68;100.00;99206.84;5000658;28;20074;-84
2023/04/18 03:51:16;;;;;;;29.20;13.48;;;;;;;3.83;100.00;99199.16;5008282;28;20030;-87
2023/04/18 03:53:42;;;;;;;26.08;13.15;;;;;;;3.72;100.00;99168.09;5003013;28;20023;-84
2023/04/18 03:56:07;;;;;;;27.42;13.40;;;;;;;3.87;100.00;99176.44;5000276;28;20032;-86
2023/04/18 03:58:32;;;;;;;25.20;12.20;;;;;;;4.09;100.00;99201.94;4999113;28;20031;-84
2023/04/18 04:00:59;;;;;;;23.67;12.57;;;;;;;4.30;100.00;99208.84;4997039;28;20077;-84
2023/04/18 04:03:26;;;;;;;26.25;12.23;;;;;;;4.50;100.00;99218.38;4997331;28;20101;-86
2023/04/18 04:05:52;;;;;;;22.90;11.60;;;;;;;4.05;100.00;99138.97;4991855;28;20093;-86
2023/04/18 04:08:17;;;;;;;20.73;11.45;;;;;;;4.15;100.00;99161.16;5000024;28;20026;-85
2023/04/18 04:10:43;;;;;;;21.83;11.60;;;;;;;4.06;100.00;99148.69;5000645;28;20393;-82
2023/04/18 04:13:08;;;;;;;20.52;10.82;;;;;;;4.46;100.00;99200.94;4993284;28;20030;-80
2023/04/18 04:15:36;;;;;;;18.17;10.90;;;;;;;4.61;100.00;99219.97;4999131;28;20034;-86
2023/04/18 04:18:01;;;;;;;19.88;11.65;;;;;;;4.43;100.00;99193.22;5000520;28;20488;-85
2023/04/18 04:20:26;;;;;;;20.48;10.77;;;;;;;4.66;100.00;99208.78;4997872;28;20037;-82
2023/04/18 04:22:52;;;;;;;18.65;10.43;;;;;;;4.88;100.00;99232.41;4996395;28;20369;-81
2023/04/18 04:25:18;;;;;;;18.48;10.80;;;;;;;4.91;100.00;99226.75;4998256;28;20026;-88
2023/04/18 04:27:43;;;;;;;18.77;9.82;;;;;;;4.77;100.00;99198.66;5000779;28;20148;-86
2023/04/18 04:30:09;;;;;;;17.50;10.13;;;;;;;4.72;100.00;99178.69;4999480;28;20018;-82
2023/04/18 04:32:35;;;;;;;21.98;10.93;;;;;;;4.88;100.00;99196.72;4989025;28;20504;-85
2023/04/18 04:35:00;;;;;;;15.68;10.25;;;;;;;4.91;100.00;99191.88;4987093;28;20397;-89
2023/04/18 04:37:26;;;;;;;18.38;10.35;;;;;;;4.96;100.00;99194.94;4997490;28;20022;-87
2023/04/18 04:39:52;;;;;;;16.80;9.80;;;;;;;5.13;100.00;99216.50;4994650;28;20032;-81
2023/04/18 04:42:18;;;;;;;21.27;10.40;;;;;;;5.20;100.00;99226.44;4996628;28;20062;-81
2023/04/18 04:44:44;;;;;;;21.67;10.20;;;;;;;4.99;100.00;99175.00;5000472;28;20025;-82
2023/04/18 04:47:10;;;;;;;19.48;10.65;;;;;;;5.17;100.00;99216.03;4995693;28;20031;-79
2023/04/18 04:49:35;;;;;;;22.05;10.48;;;;;;;5.31;100.00;99214.56;4996046;28;20396;-77
2023/04/18 04:52:01;;;;;;;20.42;10.07;;;;;;;5.20;100.00;99185.34;4992239;28;20034;-77
2023/04/18 04:54:27;;;;;;;20.98;9.68;;;;;;;5.39;100.00;99203.88;4989838;28;20146;-77
2023/04/18 04:56:52;;;;;;;21.67;12.55;;;;;;;5.45;100.00;99205.13;4990890;28;20113;-76
2023/04/18 04:59:17;;;;;;;21.98;10.82;;;;;;;5.52;100.00;99197.25;4993965;28;20034;-77
2023/04/18 05:01:43;;;;;;;21.92;11.98;;;;;;;5.57;100.00;99202.97;4985497;28;20149;-77
2023/04/18 05:04:08;;;;;;;18.63;10.65;;;;;;;5.72;100.00;99206.72;4990155;28;20031;-76
2023/04/18 05:06:33;;;;;;;18.35;10.73;;;;;;;5.79;100.00;99207.75;4983818;28;20069;-76
2023/04/18 05:08:59;;;;;;;18.45;10.00;;;;;;;6.00;100.00;99217.22;4977596;28;20053;-77
2023/04/18 05:11:25;;;;;;;18.85;10.82;;;;;;;6.04;100.00;99214.06;4984468;28;20507;-77
2023/04/18 05:13:51;;;;;;;17.67;10.95;;;;;;;6.08;100.00;99222.66;4994891;28;20038;-76
2023/04/18 05:16:16;;;;;;;17.67;9.95;;;;;;;6.11;100.00;99225.00;4989243;28;20095;-77
2023/04/18 05:18:42;;;;;;;21.13;11.98;;;;;;;6.24;100.00;99214.63;4989862;28;20464;-77
2023/04/18 05:21:07;;;;;;;19.92;11.65;;;;;;;6.21;100.00;99216.78;4990935;28;20567;-82
2023/04/18 05:23:36;;;;;;;20.20;11.35;;;;;;;6.33;100.00;99218.97;5001540;28;20022;-80
2023/04/18 05:26:02;;;;;;;19.65;11.65;;;;;;;6.28;100.00;99210.56;4997059;28;20036;-78
2023/04/18 05:28:28;;;;;;;20.23;9.93;;;;;;;6.49;100.00;99209.25;4994221;28;20026;-80
2023/04/18 05:30:59;;;;;;;15.93;9.95;;;;;;;6.34;100.00;99198.31;4985248;28;20672;-77
2023/04/18 05:33:28;;;;;;;17.80;10.02;;;;;;;6.49;100.00;99222.69;4991525;28;20110;-76
2023/04/18 05:35:54;;;;;;;19.90;10.52;;;;;;;6.49;100.00;99207.41;4991854;28;20077;-77
2023/04/18 05:38:20;;;;;;;22.52;10.38;;;;;;;6.68;100.00;99217.00;4993481;28;20448;-77
2023/04/18 05:40:45;;;;;;;44.63;10.70;;;;;;;6.45;100.00;99178.38;4980858;28;20053;-75
2023/04/18 05:43:10;;;;;;;50.20;12.13;;;;;;;6.84;100.00;99220.66;4989107;28;20034;-78
2023/04/18 05:45:36;;;;;;;16.98;9.25;;;;;;;6.92;100.00;99221.53;4988172;28;20465;-76
2023/04/18 05:48:01;;;;;;;14.15;8.48;;;;;;;7.08;100.00;99217.97;4990779;28;20034;-75
2023/04/18 05:50:26;;;;;;;17.05;9.77;;;;;;;7.11;100.00;99200.66;4989495;28;20029;-77
2023/04/18 05:52:52;;;;;;;21.33;9.50;;;;;;;7.45;100.00;99209.28;4991206;28;20419;-86
2023/04/18 05:55:17;;;;;;;43.58;10.10;;;;;;;7.28;100.00;99126.91;4994154;28;20038;-77
2023/04/18 05:57:42;;;;;;;24.27;9.80;;;;;;;7.97;100.00;99220.53;4991499;28;20030;-76
2023/04/18 06:00:11;;;;;;;16.42;9.00;;;;;;;8.05;100.00;99194.38;4991885;28;20407;-74
2023/04/18 06:02:37;;;;;;;15.65;9.13;;;;;;;7.93;100.00;99194.97;4985180;28;20503;-74
2023/04/18 06:05:02;;;;;;;16.75;8.73;;;;;;;7.83;100.00;99205.94;4991352;28;20038;-75
2023/04/18 06:07:28;;;;;;;19.27;9.95;;;;;;;7.79;100.00;99220.78;4992640;28;20078;-76
2023/04/18 06:09:53;;;;;;;15.25;8.75;;;;;;;7.57;100.00;99207.09;4992370;28;20045;-75
2023/04/18 06:12:19;;;;;;;13.60;8.25;;;;;;;7.75;100.00;99232.91;4989120;28;20034;-75
2023/04/18 06:14:45;;;;;;;17.70;8.43;;;;;;;7.75;100.00;99239.13;4992134;28;20030;-75
2023/04/18 06:17:12;;;;;;;17.45;8.73;;;;;;;7.67;100.00;99250.78;4988445;28;20392;-76
2023/04/18 06:19:38;;;;;;;20.40;9.07;;;;;;;7.51;100.00;99231.16;4990602;28;20038;-75
2023/04/18 06:22:03;;;;;;;15.13;8.63;;;;;;;7.61;100.00;99248.78;4989085;28;20036;-73
2023/04/18 06:24:29;;;;;;;17.70;8.95;;;;;;;7.49;100.00;99228.63;4992585;28;20034;-74
2023/04/18 06:26:54;;;;;;;18.13;9.32;;;;;;;7.74;100.00;99240.16;4989402;28;20089;-68
2023/04/18 06:29:21;;;;;;;15.05;8.57;;;;;;;7.94;100.00;99237.91;5009317;28;20013;-82
2023/04/18 06:31:47;;;;;;;14.27;8.93;;;;;;;7.96;100.00;99222.38;5010045;28;20082;-82
2023/04/18 06:34:12;;;;;;;14.38;7.93;;;;;;;8.25;100.00;99229.81;4993553;28;20056;-79
2023/04/18 06:36:38;;;;;;;15.73;8.80;;;;;;;8.38;100.00;99225.66;4994231;28;20369;-79
2023/04/18 06:39:03;;;;;;;16.80;8.32;;;;;;;8.99;100.00;99231.97;4994146;28;20045;-80
2023/04/18 06:41:30;;;;;;;13.60;7.78;;;;;;;9.19;100.00;99208.81;4991164;28;20052;-79
2023/04/18 06:43:57;;;;;;;14.10;8.73;;;;;;;9.78;100.00;99224.22;4991812;28;20101;-80
2023/04/18 06:46:23;;;;;;;13.32;8.15;;;;;;;9.68;100.00;99228.22;4991803;28;20112;-79
2023/04/18 06:48:49;;;;;;;16.08;8.63;;;;;;;9.21;100.00;99201.38;4992669;28;20849;-79
2023/04/18 06:51:14;;;;;;;20.17;8.02;;;;;;;8.91;100.00;99230.19;4991975;28;20050;-79
2023/04/18 06:53:40;;;;;;;14.32;8.43;;;;;;;8.61;100.00;99198.75;4992477;28;20027;-78
2023/04/18 06:56:06;;;;;;;15.18;8.85;;;;;;;8.92;100.00;99242.66;4991460;28;20089;-78
2023/04/18 06:58:31;;;;;;;17.38;9.57;;;;;;;8.79;100.00;99223.53;4993322;28;20117;-80
2023/04/18 07:00:56;;;;;;;17.45;8.52;;;;;;;9.00;100.00;99220.97;4991064;28;20504;-78
2023/04/18 07:03:22;;;;;;;16.08;9.55;;;;;;;9.08;100.00;99233.56;4990808;28;20114;-78
2023/04/18 07:05:47;;;;;;;15.65;8.93;;;;;;;8.99;100.00;99208.53;4991661;28;20030;-74
2023/04/18 07:08:13;;;;;;;14.65;9.35;;;;;;;9.28;100.00;99222.25;4990388;28;20081;-78
2023/04/18 07:10:39;;;;;;;19.50;9.18;;;;;;;9.68;100.00;99231.75;4991374;28;20069;-75
2023/04/18 07:13:04;;;;;;;15.27;8.95;;;;;;;10.10;100.00;99211.28;4990980;28;20488;-75
2023/04/18 07:15:29;;;;;;;16.10;9.07;;;;;;;10.21;100.00;99205.38;4990112;28;20519;-74
2023/04/18 07:17:55;;;;;;;19.05;10.02;;;;;;;10.49;100.00;99219.03;4987269;28;20077;-75
2023/04/18 07:20:20;;;;;;;16.00;9.15;;;;;;;10.30;100.00;99225.06;4986732;28;20038;-75
2023/04/18 07:22:46;;;;;;;14.13;8.88;;;;;;;10.07;100.00;99222.47;4985056;28;20034;-74
2023/04/18 07:25:12;;;;;;;17.73;9.63;;;;;;;9.70;100.00;99231.59;4987626;28;20071;-73
2023/04/18 07:27:37;;;;;;;21.70;10.25;;;;;;;9.59;100.00;99211.28;4991897;28;20583;-83
2023/04/18 07:30:03;;;;;;;23.42;10.23;;;;;;;9.85;100.00;99217.03;4992343;28;20018;-79
2023/04/18 07:32:28;;;;;;;19.10;9.82;;;;;;;9.93;100.00;99217.94;4986225;28;20023;-75
2023/04/18 07:34:56;;;;;;;15.45;8.80;;;;;;;9.90;100.00;99237.22;4989707;28;20030;-74
2023/04/18 07:37:24;;;;;;;22.27;10.43;;;;;;;9.91;100.00;99231.66;4989004;28;20041;-86
2023/04/18 07:39:50;;;;;;;20.75;10.27;;;;;;;10.07;100.00;99234.13;4989549;28;20045;-88
2023/04/18 07:42:16;;;;;;;19.95;10.73;;;;;;;10.10;100.00;99205.88;4985222;28;20516;-86
2023/04/18 07:44:42;;;;;;;20.15;10.43;;;;;;;10.15;100.00;99151.25;4989163;28;20030;-78
2023/04/18 07:47:09;;;;;;;19.63;10.48;;;;;;;10.83;100.00;99232.88;4992557;28;20480;-75
2023/04/18 07:49:34;;;;;;;22.20;10.50;;;;;;;11.02;100.00;99205.13;4994743;28;20166;-74
2023/04/18 07:51:59;;;;;;;14.90;8.80;;;;;;;11.58;100.00;99224.06;4985202;28;20537;-74
2023/04/18 07:54:25;;;;;;;17.35;8.95;;;;;;;11.88;100.00;99229.25;4988102;28;20033;-75
2023/04/18 07:56:50;;;;;;;16.83;9.10;;;;;;;12.11;100.00;99214.56;4993881;28;20100;-74
2023/04/18 07:59:15;;;;;;;17.60;9.32;;;;;;;12.48;100.00;99221.34;4994494;28;20022;-74
2023/04/18 08:01:41;;;;;;;16.83;9.23;;;;;;;12.90;100.00;99203.84;4982389;28;20041;-74
2023/04/18 08:04:06;;;;;;;14.70;8.65;;;;;;;13.49;100.00;99214.88;4984496;28;20049;-71
2023/04/18 08:06:33;;;;;;;18.35;9.48;;;;;;;13.77;100.00;99217.34;4988775;28;20054;-73
2023/04/18 08:09:02;;;;;;;14.23;8.63;;;;;;;13.36;100.00;99208.44;4998369;28;20019;-78
2023/04/18 08:11:27;;;;;;;19.35;8.82;;;;;;;14.03;100.00;99208.25;5003642;28;20274;-78
2023/04/18 08:13:52;;;;;;;18.75;8.70;;;;;;;14.24;100.00;99216.09;4996239;28;20026;-78
2023/04/18 08:16:17;;;;;;;19.83;8.95;;;;;;;14.79;100.00;99195.69;4988377;28;20397;-78
2023/04/18 08:18:43;;;;;;;16.50;8.95;;;;;;;15.66;100.00;99229.28;4998701;28;20039;-80
2023/04/18 08:21:08;;;;;;;11.63;8.02;;;;;;;16.79;100.00;99208.78;4995063;28;20467;-81
2023/04/18 08:23:34;;;;;;;16.67;8.35;;;;;;;16.96;91.31;99191.69;5007471;28;20571;-81
2023/04/18 08:25:59;;;;;;;13.75;8.15;;;;;;;16.68;89.73;99179.47;5007961;28;20030;-81
2023/04/18 08:28:24;;;;;;;13.82;8.30;;;;;;;16.61;97.59;99230.66;5000046;28;20018;-77
2023/04/18 08:30:50;;;;;;;13.15;8.57;;;;;;;16.10;100.00;99194.59;4993317;28;20039;-78
2023/04/18 08:33:17;;;;;;;13.73;8.13;;;;;;;16.04;100.00;99231.00;4993350;28;20018;-73
2023/04/18 08:35:42;;;;;;;14.20;9.43;;;;;;;16.75;100.00;99207.53;4991503;28;20026;-70
2023/04/18 08:38:08;;;;;;;12.48;8.07;;;;;;;16.73;92.12;99225.25;4992534;28;20034;-70
2023/04/18 08:40:33;;;;;;;14.07;9.25;;;;;;;15.62;100.00;99222.63;4993737;28;20077;-70
2023/04/18 08:43:03;;;;;;;12.93;8.00;;;;;;;15.27;100.00;99230.50;4994643;28;20030;-83
2023/04/18 08:45:30;;;;;;;12.65;8.68;;;;;;;14.50;100.00;99219.72;4987267;28;20038;-84
2023/04/18 08:48:00;;;;;;;15.88;8.52;;;;;;;14.56;100.00;99228.94;4986324;28;20531;-82
2023/04/18 08:50:26;;;;;;;11.48;7.70;;;;;;;14.55;100.00;99228.09;5001955;28;20030;-86
2023/04/18 08:52:53;;;;;;;13.75;9.13;;;;;;;14.28;100.00;99242.88;5004399;28;20089;-84
2023/04/18 08:55:21;;;;;;;14.35;8.93;;;;;;;13.27;100.00;99250.47;5001111;28;20058;-83
2023/04/18 08:57:49;;;;;;;13.07;8.38;;;;;;;12.85;100.00;99233.50;4992683;28;20100;-85
2023/04/18 09:00:16;;;;;;;14.25;8.52;;;;;;;13.09;100.00;99255.66;4995804;28;20029;-85
2023/04/18 09:02:42;;;;;;;13.90;8.82;;;;;;;12.89;100.00;99234.75;4990504;28;20029;-78
2023/04/18 09:05:20;;;;;;;15.27;8.35;;;;;;;13.08;100.00;99262.13;4994718;28;20484;-77
2023/04/18 09:07:47;;;;;;;16.92;8.73;;;;;;;12.88;100.00;99257.50;4995734;28;20066;-83
2023/04/18 09:10:12;;;;;;;22.15;8.65;;;;;;;13.02;100.00;99271.09;5003653;28;20026;-82
2023/04/18 09:12:54;;;;;;;14.30;8.30;;;;;;;12.68;100.00;99262.06;4996212;28;20588;-80
2023/04/18 09:15:25;;;;;;;14.70;8.80;;;;;;;12.67;100.00;99252.25;4992468;28;20389;-78
2023/04/18 09:17:52;;;;;;;15.75;8.50;;;;;;;12.82;100.00;99250.19;4991853;28;20463;-68
2023/04/18 09:20:25;;;;;;;15.55;8.75;;;;;;;12.81;100.00;99263.97;4993173;28;20385;-69
2023/04/18 09:22:53;;;;;;;14.70;8.43;;;;;;;12.91;100.00;99242.69;4992027;28;20057;-70
2023/04/18 09:25:33;;;;;;;13.32;8.05;;;;;;;12.92;100.00;99257.94;4975063;28;20034;-69
2023/04/18 09:28:03;;;;;;;15.32;8.15;;;;;;;13.22;100.00;99249.38;4982439;28;20022;-69
2023/04/18 09:30:33;;;;;;;14.02;7.53;;;;;;;13.88;100.00;99251.19;4989321;28;20029;-70
2023/04/18 09:33:00;;;;;;;12.60;8.00;;;;;;;13.65;100.00;99252.53;4990758;28;20030;-69
2023/04/18 09:35:26;;;;;;;12.80;7.95;;;;;;;15.35;100.00;99241.13;4992242;28;20034;-70
2023/04/18 09:37:51;;;;;;;11.00;6.78;;;;;;;16.10;100.00;99240.16;4992688;28;20419;-73
2023/04/18 09:40:18;;;;;;;11.15;6.90;;;;;;;17.38;91.25;99247.13;4993880;28;20030;-68
2023/04/18 09:42:44;;;;;;;9.65;6.60;;;;;;;18.09;85.91;99230.69;4993426;28;20050;-69
2023/04/18 09:45:11;;;;;;;10.75;6.75;;;;;;;18.57;78.15;99243.16;4985452;28;20042;-71
2023/04/18 09:47:37;;;;;;;13.05;6.25;;;;;;;17.69;81.03;99242.38;4982085;28;20135;-68
2023/04/18 09:50:06;;;;;;;13.32;6.97;;;;;;;17.14;87.52;99237.25;4988484;28;20096;-73
2023/04/18 09:52:36;;;;;;;9.75;6.20;;;;;;;16.47;100.00;99245.56;4986610;28;20966;-69
2023/04/18 09:55:04;;;;;;;10.38;6.50;;;;;;;16.50;100.00;99245.09;4990814;28;20018;-68
2023/04/18 09:57:31;;;;;;;10.10;6.40;;;;;;;16.71;97.69;99236.38;4993523;28;20033;-68
2023/04/18 10:00:16;;;;;;;10.70;6.90;;;;;;;16.49;100.00;99238.81;4996806;28;20046;-68
2023/04/18 10:02:49;;;;;;;12.27;6.47;;;;;;;16.47;100.00;99235.47;4992603;28;20125;-68
2023/04/18 10:05:15;;;;;;;9.98;7.07;;;;;;;15.56;100.00;99234.41;4990272;28;20026;-68
2023/04/18 10:07:43;;;;;;;10.45;6.00;;;;;;;15.00;100.00;99236.19;4992768;28;20041;-68
2023/04/18 10:10:08;;;;;;;13.13;6.47;;;;;;;15.18;100.00;99227.22;4992511;28;20019;-71
2023/04/18 10:12:36;;;;;;;7.90;5.88;;;;;;;15.17;100.00;99233.75;4992746;28;20568;-68
2023/04/18 10:15:01;;;;;;;8.80;6.05;;;;;;;15.44;100.00;99228.88;4992622;28;20140;-68
2023/04/18 10:17:27;;;;;;;11.13;6.15;;;;;;;15.90;100.00;99224.00;4992036;28;20026;-71
2023/04/18 10:20:15;;;;;;;9.65;5.70;;;;;;;15.26;100.00;99218.75;4988582;28;20528;-68
2023/04/18 10:22:40;;;;;;;10.60;5.28;;;;;;;15.09;100.00;99214.91;4986889;28;20466;-68
2023/04/18 10:25:06;;;;;;;9.23;5.75;;;;;;;15.17;100.00;99224.72;4982072;28;20113;-69
2023/04/18 10:27:46;;;;;;;8.10;5.40;;;;;;;14.98;100.00;99219.22;4984916;28;20053;-73
2023/04/18 10:30:12;;;;;;;8.50;5.13;;;;;;;15.01;100.00;99216.06;4985061;28;20030;-70
2023/04/18 10:32:38;;;;;;;9.07;5.88;;;;;;;14.99;100.00;99217.34;4983503;28;20396;-69
2023/04/18 10:35:04;;;;;;;8.23;5.18;;;;;;;15.01;100.00;99212.47;4986746;28;20027;-69
2023/04/18 10:37:31;;;;;;;7.28;5.32;;;;;;;14.89;100.00;99229.56;4983658;28;20032;-69
2023/04/18 10:39:59;;;;;;;8.98;4.93;;;;;;;14.03;100.00;99214.50;4987693;28;20034;-72
2023/04/18 10:42:53;;;;;;;9.50;5.35;;;;;;;13.33;100.00;99225.16;4978477;28;20423;-69
2023/04/18 10:45:23;;;;;;;7.07;4.93;;;;;;;13.17;100.00;99231.00;4983124;28;20160;-68
2023/04/18 10:47:49;;;;;;;8.15;5.32;;;;;;;12.97;100.00;99230.16;4986175;28;20038;-68
2023/04/18 10:50:15;;;;;;;12.82;6.13;;;;;;;13.18;100.00;99227.25;4988076;28;20027;-68
2023/04/18 10:52:41;;;;;;;9.05;5.60;;;;;;;13.36;100.00;99208.44;4979371;28;20084;-68
2023/04/18 10:55:27;;;;;;;9.23;5.82;;;;;;;13.68;100.00;99227.63;4979344;28;20031;-68
2023/04/18 10:57:55;;;;;;;14.32;6.97;;;;;;;13.78;100.00;99217.13;4979441;28;20030;-68
2023/04/18 11:00:22;;;;;;;12.98;6.55;;;;;;;13.56;100.00;99213.00;4989295;28;20026;-68
2023/04/18 11:02:58;;;;;;;15.82;7.28;;;;;;;13.40;100.00;99214.28;4982741;28;20018;-68
2023/04/18 11:05:28;;;;;;;17.95;7.32;;;;;;;13.42;100.00;99216.81;4980444;28;20066;-70
2023/04/18 11:07:54;;;;;;;15.20;7.45;;;;;;;13.59;100.00;99213.41;4982608;28;20121;-68
2023/04/18 11:10:23;;;;;;;13.02;6.97;;;;;;;13.84;100.00;99210.00;4984383;28;20026;-68
2023/04/18 11:12:48;;;;;;;12.55;7.63;;;;;;;14.10;100.00;99214.50;4984143;28;20101;-70
2023/04/18 11:15:21;;;;;;;14.88;7.25;;;;;;;14.12;100.00;99201.53;4978450;28;20596;-68
2023/04/18 11:18:01;;;;;;;13.85;7.40;;;;;;;14.03;100.00;99208.25;4982985;28;20069;-69